Triumph, Louisiana
Current Conditions -  °F | °C
As of 3:51 AM on Friday 31 Oct 2014 (Local Time) from KBVE Reporting Station
Clear Clear  
Wind Chill: 65°   Ceiling: Unl
Heat Index: 65°   Visibility: 10mi
Dew Point: 51°   Wind: 6mph
Humidity: 61%   Direction: 350°N
Pressure: 30.02"   Gusts: NA
Location:  29.2996°N, 89.4367°W
Report Text: KBVE 310851Z AUTO 35005KT 10SM CLR 18/11 A3002 RMK AO2 SLP165 T01830106 57004
Loading
Personal Weather Stations






























Interactive Weather Map
Tropical Storm Tracking
New forecast layout! Learn more

10-Day Weather Forecast

Advertisements
Track Severe Weather on mobile